sensor_id;sensor_type;location;lat;lon;timestamp;temperature;humidity
18392;DHT22;9322;50.932;5.318;2022-11-30T00:00:19;8.10;99.90
18392;DHT22;9322;50.932;5.318;2022-11-30T00:02:48;8.10;99.90
18392;DHT22;9322;50.932;5.318;2022-11-30T00:05:18;8.10;99.90
18392;DHT22;9322;50.932;5.318;2022-11-30T00:07:44;8.20;99.90
18392;DHT22;9322;50.932;5.318;2022-11-30T00:10:10;8.20;99.90
18392;DHT22;9322;50.932;5.318;2022-11-30T00:12:35;8.10;99.90
18392;DHT22;9322;50.932;5.318;2022-11-30T00:15:01;8.20;99.90
18392;DHT22;9322;50.932;5.318;2022-11-30T00:17:27;8.30;99.90
18392;DHT22;9322;50.932;5.318;2022-11-30T00:19:52;8.20;99.90
18392;DHT22;9322;50.932;5.318;2022-11-30T00:22:18;8.30;99.90
18392;DHT22;9322;50.932;5.318;2022-11-30T00:24:44;8.10;99.90
18392;DHT22;9322;50.932;5.318;2022-11-30T00:27:09;8.10;99.90
18392;DHT22;9322;50.932;5.318;2022-11-30T00:29:35;8.20;99.90
18392;DHT22;9322;50.932;5.318;2022-11-30T00:32:01;8.10;99.90
18392;DHT22;9322;50.932;5.318;2022-11-30T00:34:26;8.20;99.90
18392;DHT22;9322;50.932;5.318;2022-11-30T00:36:52;8.10;99.90
18392;DHT22;9322;50.932;5.318;2022-11-30T00:39:18;8.30;99.90
18392;DHT22;9322;50.932;5.318;2022-11-30T00:41:43;8.10;99.90
18392;DHT22;9322;50.932;5.318;2022-11-30T00:44:09;8.10;99.90
18392;DHT22;9322;50.932;5.318;2022-11-30T00:46:34;8.00;99.90
18392;DHT22;9322;50.932;5.318;2022-11-30T00:49:03;8.00;99.90
18392;DHT22;9322;50.932;5.318;2022-11-30T00:51:28;8.00;99.90
18392;DHT22;9322;50.932;5.318;2022-11-30T00:53:54;8.00;99.90
18392;DHT22;9322;50.932;5.318;2022-11-30T00:56:20;8.10;99.90
18392;DHT22;9322;50.932;5.318;2022-11-30T00:58:45;8.00;99.90
18392;DHT22;9322;50.932;5.318;2022-11-30T01:01:11;8.00;99.90
18392;DHT22;9322;50.932;5.318;2022-11-30T01:03:37;7.90;99.90
18392;DHT22;9322;50.932;5.318;2022-11-30T01:06:04;7.90;99.90
18392;DHT22;9322;50.932;5.318;2022-11-30T01:08:31;8.00;99.90
18392;DHT22;9322;50.932;5.318;2022-11-30T01:11:08;8.00;99.90
18392;DHT22;9322;50.932;5.318;2022-11-30T01:13:35;8.00;99.90
18392;DHT22;9322;50.932;5.318;2022-11-30T01:16:01;8.00;99.90
18392;DHT22;9322;50.932;5.318;2022-11-30T01:18:35;8.00;99.90
18392;DHT22;9322;50.932;5.318;2022-11-30T01:21:05;8.00;99.90
18392;DHT22;9322;50.932;5.318;2022-11-30T01:23:31;8.00;99.90
18392;DHT22;9322;50.932;5.318;2022-11-30T01:25:56;8.00;99.90
18392;DHT22;9322;50.932;5.318;2022-11-30T01:28:22;7.90;99.90
18392;DHT22;9322;50.932;5.318;2022-11-30T01:31:08;7.90;99.90
18392;DHT22;9322;50.932;5.318;2022-11-30T01:33:35;7.90;99.90
18392;DHT22;9322;50.932;5.318;2022-11-30T01:36:06;7.90;99.90
18392;DHT22;9322;50.932;5.318;2022-11-30T01:38:35;7.90;99.90
18392;DHT22;9322;50.932;5.318;2022-11-30T01:41:02;8.00;99.90
18392;DHT22;9322;50.932;5.318;2022-11-30T01:51:43;7.90;99.90
18392;DHT22;9322;50.932;5.318;2022-11-30T01:54:13;7.80;99.90
18392;DHT22;9322;50.932;5.318;2022-11-30T01:56:43;7.80;99.90
18392;DHT22;9322;50.932;5.318;2022-11-30T01:59:10;7.70;99.90
18392;DHT22;9322;50.932;5.318;2022-11-30T02:01:36;7.80;99.90
18392;DHT22;9322;50.932;5.318;2022-11-30T02:04:14;7.70;99.90
18392;DHT22;9322;50.932;5.318;2022-11-30T02:06:43;7.60;99.90
18392;DHT22;9322;50.932;5.318;2022-11-30T02:09:09;7.60;99.90
18392;DHT22;9322;50.932;5.318;2022-11-30T02:11:35;7.70;99.90
18392;DHT22;9322;50.932;5.318;2022-11-30T02:30:54;7.60;99.90
18392;DHT22;9322;50.932;5.318;2022-11-30T02:33:25;7.60;99.90
18392;DHT22;9322;50.932;5.318;2022-11-30T02:35:53;7.60;99.90
18392;DHT22;9322;50.932;5.318;2022-11-30T02:38:22;7.60;99.90
18392;DHT22;9322;50.932;5.318;2022-11-30T02:40:48;7.50;99.90
18392;DHT22;9322;50.932;5.318;2022-11-30T02:43:14;7.60;99.90
18392;DHT22;9322;50.932;5.318;2022-11-30T02:45:55;7.50;99.90
18392;DHT22;9322;50.932;5.318;2022-11-30T02:48:58;7.30;99.90
18392;DHT22;9322;50.932;5.318;2022-11-30T02:51:31;7.40;99.90
18392;DHT22;9322;50.932;5.318;2022-11-30T02:53:58;7.30;99.90
18392;DHT22;9322;50.932;5.318;2022-11-30T02:56:24;7.40;99.90
18392;DHT22;9322;50.932;5.318;2022-11-30T02:58:50;7.40;99.90
18392;DHT22;9322;50.932;5.318;2022-11-30T03:01:16;7.50;99.90
18392;DHT22;9322;50.932;5.318;2022-11-30T03:03:42;7.50;99.90
18392;DHT22;9322;50.932;5.318;2022-11-30T03:06:09;7.50;99.90
18392;DHT22;9322;50.932;5.318;2022-11-30T03:08:35;7.60;99.90
18392;DHT22;9322;50.932;5.318;2022-11-30T03:11:02;7.50;99.90
18392;DHT22;9322;50.932;5.318;2022-11-30T03:13:29;7.40;99.90
18392;DHT22;9322;50.932;5.318;2022-11-30T03:15:55;7.60;99.90
18392;DHT22;9322;50.932;5.318;2022-11-30T03:18:20;7.60;99.90
18392;DHT22;9322;50.932;5.318;2022-11-30T03:20:46;7.50;99.90
18392;DHT22;9322;50.932;5.318;2022-11-30T03:23:12;7.50;99.90
18392;DHT22;9322;50.932;5.318;2022-11-30T03:25:37;7.40;99.90
18392;DHT22;9322;50.932;5.318;2022-11-30T03:28:03;7.40;99.90
18392;DHT22;9322;50.932;5.318;2022-11-30T03:30:29;7.40;99.90
18392;DHT22;9322;50.932;5.318;2022-11-30T03:32:54;7.40;99.90
18392;DHT22;9322;50.932;5.318;2022-11-30T03:35:20;7.30;99.90
18392;DHT22;9322;50.932;5.318;2022-11-30T03:37:46;7.40;99.90
18392;DHT22;9322;50.932;5.318;2022-11-30T03:40:12;7.40;99.90
18392;DHT22;9322;50.932;5.318;2022-11-30T03:42:38;7.30;99.90
18392;DHT22;9322;50.932;5.318;2022-11-30T03:45:04;7.20;99.90
18392;DHT22;9322;50.932;5.318;2022-11-30T03:47:29;7.30;99.90
18392;DHT22;9322;50.932;5.318;2022-11-30T03:49:55;7.30;99.90
18392;DHT22;9322;50.932;5.318;2022-11-30T03:52:21;7.20;99.90
18392;DHT22;9322;50.932;5.318;2022-11-30T03:54:46;7.30;99.90
18392;DHT22;9322;50.932;5.318;2022-11-30T03:57:12;7.30;99.90
18392;DHT22;9322;50.932;5.318;2022-11-30T03:59:37;7.40;99.90
18392;DHT22;9322;50.932;5.318;2022-11-30T04:02:03;7.30;99.90
18392;DHT22;9322;50.932;5.318;2022-11-30T04:04:29;7.30;99.90
18392;DHT22;9322;50.932;5.318;2022-11-30T04:06:54;7.30;99.90
18392;DHT22;9322;50.932;5.318;2022-11-30T04:09:20;7.40;99.90
18392;DHT22;9322;50.932;5.318;2022-11-30T04:11:46;7.40;99.90
18392;DHT22;9322;50.932;5.318;2022-11-30T04:14:11;7.40;99.90
18392;DHT22;9322;50.932;5.318;2022-11-30T04:16:37;7.30;99.90
18392;DHT22;9322;50.932;5.318;2022-11-30T04:19:03;7.40;99.90
18392;DHT22;9322;50.932;5.318;2022-11-30T04:21:29;7.30;99.90
18392;DHT22;9322;50.932;5.318;2022-11-30T04:23:54;7.40;99.90
18392;DHT22;9322;50.932;5.318;2022-11-30T04:26:20;7.40;99.90
18392;DHT22;9322;50.932;5.318;2022-11-30T04:28:46;7.40;99.90
18392;DHT22;9322;50.932;5.318;2022-11-30T04:31:11;7.50;99.90
18392;DHT22;9322;50.932;5.318;2022-11-30T04:33:37;7.50;99.90
18392;DHT22;9322;50.932;5.318;2022-11-30T04:36:05;7.50;99.90
18392;DHT22;9322;50.932;5.318;2022-11-30T04:38:32;7.50;99.90
18392;DHT22;9322;50.932;5.318;2022-11-30T04:40:58;7.50;99.90
18392;DHT22;9322;50.932;5.318;2022-11-30T04:43:24;7.50;99.90
18392;DHT22;9322;50.932;5.318;2022-11-30T04:45:50;7.40;99.90
18392;DHT22;9322;50.932;5.318;2022-11-30T04:48:18;7.40;99.90
18392;DHT22;9322;50.932;5.318;2022-11-30T04:50:43;7.40;99.90
18392;DHT22;9322;50.932;5.318;2022-11-30T04:53:09;7.50;99.90
18392;DHT22;9322;50.932;5.318;2022-11-30T04:55:36;7.40;99.90
18392;DHT22;9322;50.932;5.318;2022-11-30T04:58:04;7.40;99.90
18392;DHT22;9322;50.932;5.318;2022-11-30T05:00:30;7.40;99.90
18392;DHT22;9322;50.932;5.318;2022-11-30T05:02:56;7.40;99.90
18392;DHT22;9322;50.932;5.318;2022-11-30T05:05:22;7.40;99.90
18392;DHT22;9322;50.932;5.318;2022-11-30T05:07:54;7.30;99.90
18392;DHT22;9322;50.932;5.318;2022-11-30T05:10:21;7.40;99.90
18392;DHT22;9322;50.932;5.318;2022-11-30T05:12:46;7.40;99.90
18392;DHT22;9322;50.932;5.318;2022-11-30T05:15:12;7.40;99.90
18392;DHT22;9322;50.932;5.318;2022-11-30T05:17:38;7.30;99.90
18392;DHT22;9322;50.932;5.318;2022-11-30T05:20:04;7.40;99.90
18392;DHT22;9322;50.932;5.318;2022-11-30T05:22:30;7.50;99.90
18392;DHT22;9322;50.932;5.318;2022-11-30T05:24:59;7.40;99.90
18392;DHT22;9322;50.932;5.318;2022-11-30T05:27:25;7.40;99.90
18392;DHT22;9322;50.932;5.318;2022-11-30T05:29:51;7.40;99.90
18392;DHT22;9322;50.932;5.318;2022-11-30T05:32:16;7.60;99.90
18392;DHT22;9322;50.932;5.318;2022-11-30T05:34:42;7.50;99.90
18392;DHT22;9322;50.932;5.318;2022-11-30T05:37:08;7.50;99.90
18392;DHT22;9322;50.932;5.318;2022-11-30T05:39:33;7.50;99.90
18392;DHT22;9322;50.932;5.318;2022-11-30T05:41:59;7.60;99.90
18392;DHT22;9322;50.932;5.318;2022-11-30T05:44:24;7.40;99.90
18392;DHT22;9322;50.932;5.318;2022-11-30T05:46:50;7.50;99.90
18392;DHT22;9322;50.932;5.318;2022-11-30T05:49:16;7.50;99.90
18392;DHT22;9322;50.932;5.318;2022-11-30T05:51:41;7.40;99.90
18392;DHT22;9322;50.932;5.318;2022-11-30T05:54:07;7.40;99.90
18392;DHT22;9322;50.932;5.318;2022-11-30T05:56:33;7.40;99.90
18392;DHT22;9322;50.932;5.318;2022-11-30T05:58:58;7.40;99.90
18392;DHT22;9322;50.932;5.318;2022-11-30T06:01:26;7.30;99.90
18392;DHT22;9322;50.932;5.318;2022-11-30T06:03:52;7.30;99.90
18392;DHT22;9322;50.932;5.318;2022-11-30T06:06:18;7.30;99.90
18392;DHT22;9322;50.932;5.318;2022-11-30T06:08:47;7.30;99.90
18392;DHT22;9322;50.932;5.318;2022-11-30T06:11:14;7.30;99.90
18392;DHT22;9322;50.932;5.318;2022-11-30T06:13:40;7.30;99.90
18392;DHT22;9322;50.932;5.318;2022-11-30T06:16:06;7.30;99.90
18392;DHT22;9322;50.932;5.318;2022-11-30T06:18:32;7.20;99.90
18392;DHT22;9322;50.932;5.318;2022-11-30T06:20:59;7.30;99.90
18392;DHT22;9322;50.932;5.318;2022-11-30T06:23:25;7.30;99.90
18392;DHT22;9322;50.932;5.318;2022-11-30T06:25:51;7.30;99.90
18392;DHT22;9322;50.932;5.318;2022-11-30T06:28:17;7.30;99.90
18392;DHT22;9322;50.932;5.318;2022-11-30T06:30:42;7.40;99.90
18392;DHT22;9322;50.932;5.318;2022-11-30T06:33:08;7.30;99.90
18392;DHT22;9322;50.932;5.318;2022-11-30T06:35:34;7.40;99.90
18392;DHT22;9322;50.932;5.318;2022-11-30T06:37:59;7.20;99.90
18392;DHT22;9322;50.932;5.318;2022-11-30T06:40:25;7.30;99.90
18392;DHT22;9322;50.932;5.318;2022-11-30T06:42:53;7.40;99.90
18392;DHT22;9322;50.932;5.318;2022-11-30T06:45:18;7.30;99.90
18392;DHT22;9322;50.932;5.318;2022-11-30T06:47:44;7.30;99.90
18392;DHT22;9322;50.932;5.318;2022-11-30T06:50:11;7.30;99.90
18392;DHT22;9322;50.932;5.318;2022-11-30T06:52:37;7.30;99.90
18392;DHT22;9322;50.932;5.318;2022-11-30T06:55:03;7.30;99.90
18392;DHT22;9322;50.932;5.318;2022-11-30T06:57:29;7.40;99.90
18392;DHT22;9322;50.932;5.318;2022-11-30T06:59:56;7.30;99.90
18392;DHT22;9322;50.932;5.318;2022-11-30T07:02:22;7.30;99.90
18392;DHT22;9322;50.932;5.318;2022-11-30T07:04:48;7.20;99.90
18392;DHT22;9322;50.932;5.318;2022-11-30T07:07:14;7.20;99.90
18392;DHT22;9322;50.932;5.318;2022-11-30T07:09:40;7.30;99.90
18392;DHT22;9322;50.932;5.318;2022-11-30T07:12:06;7.30;99.90
18392;DHT22;9322;50.932;5.318;2022-11-30T07:14:32;7.30;99.90
18392;DHT22;9322;50.932;5.318;2022-11-30T07:16:57;7.30;99.90
18392;DHT22;9322;50.932;5.318;2022-11-30T07:19:23;7.20;99.90
18392;DHT22;9322;50.932;5.318;2022-11-30T07:21:48;7.20;99.90
18392;DHT22;9322;50.932;5.318;2022-11-30T07:24:14;7.30;99.90
18392;DHT22;9322;50.932;5.318;2022-11-30T07:27:00;7.20;99.90
18392;DHT22;9322;50.932;5.318;2022-11-30T07:29:26;7.30;99.90
18392;DHT22;9322;50.932;5.318;2022-11-30T07:31:52;7.40;99.90
18392;DHT22;9322;50.932;5.318;2022-11-30T07:34:18;7.20;99.90
18392;DHT22;9322;50.932;5.318;2022-11-30T07:36:44;7.30;99.90
18392;DHT22;9322;50.932;5.318;2022-11-30T07:39:10;7.30;99.90
18392;DHT22;9322;50.932;5.318;2022-11-30T07:41:37;7.40;99.90
18392;DHT22;9322;50.932;5.318;2022-11-30T07:44:04;7.40;99.90
18392;DHT22;9322;50.932;5.318;2022-11-30T07:46:30;7.30;99.90
18392;DHT22;9322;50.932;5.318;2022-11-30T07:48:58;7.40;99.90
18392;DHT22;9322;50.932;5.318;2022-11-30T07:51:24;7.50;99.90
18392;DHT22;9322;50.932;5.318;2022-11-30T07:53:50;7.50;99.90
18392;DHT22;9322;50.932;5.318;2022-11-30T07:56:19;7.40;99.90
18392;DHT22;9322;50.932;5.318;2022-11-30T07:58:46;7.40;99.90
18392;DHT22;9322;50.932;5.318;2022-11-30T08:01:17;7.50;99.90
18392;DHT22;9322;50.932;5.318;2022-11-30T08:03:43;7.50;99.90
18392;DHT22;9322;50.932;5.318;2022-11-30T08:06:11;7.50;99.90
18392;DHT22;9322;50.932;5.318;2022-11-30T08:08:39;7.60;99.90
18392;DHT22;9322;50.932;5.318;2022-11-30T08:11:07;7.50;99.90
18392;DHT22;9322;50.932;5.318;2022-11-30T08:13:33;7.60;99.90
18392;DHT22;9322;50.932;5.318;2022-11-30T08:16:06;7.60;99.90
18392;DHT22;9322;50.932;5.318;2022-11-30T08:18:33;7.70;99.90
18392;DHT22;9322;50.932;5.318;2022-11-30T08:21:00;7.70;99.90
18392;DHT22;9322;50.932;5.318;2022-11-30T08:23:35;7.80;99.90
18392;DHT22;9322;50.932;5.318;2022-11-30T08:26:15;7.70;99.90
18392;DHT22;9322;50.932;5.318;2022-11-30T08:28:43;7.70;99.90
18392;DHT22;9322;50.932;5.318;2022-11-30T08:31:12;7.70;99.90
18392;DHT22;9322;50.932;5.318;2022-11-30T08:33:38;7.60;99.90
18392;DHT22;9322;50.932;5.318;2022-11-30T08:36:15;7.70;99.90
18392;DHT22;9322;50.932;5.318;2022-11-30T08:38:42;7.70;99.90
18392;DHT22;9322;50.932;5.318;2022-11-30T08:41:10;7.80;99.90
18392;DHT22;9322;50.932;5.318;2022-11-30T08:43:36;7.90;99.90
18392;DHT22;9322;50.932;5.318;2022-11-30T08:46:03;7.80;99.90
18392;DHT22;9322;50.932;5.318;2022-11-30T08:48:29;8.00;99.90
18392;DHT22;9322;50.932;5.318;2022-11-30T08:51:09;8.00;99.90
18392;DHT22;9322;50.932;5.318;2022-11-30T08:53:35;7.90;99.90
18392;DHT22;9322;50.932;5.318;2022-11-30T08:56:03;7.90;99.90
18392;DHT22;9322;50.932;5.318;2022-11-30T08:58:31;7.80;99.90
18392;DHT22;9322;50.932;5.318;2022-11-30T09:01:09;7.90;99.90
18392;DHT22;9322;50.932;5.318;2022-11-30T09:03:36;8.10;99.90
18392;DHT22;9322;50.932;5.318;2022-11-30T09:06:10;8.30;99.90
18392;DHT22;9322;50.932;5.318;2022-11-30T09:08:38;8.30;99.90
18392;DHT22;9322;50.932;5.318;2022-11-30T09:11:36;8.20;99.90
18392;DHT22;9322;50.932;5.318;2022-11-30T09:14:02;8.20;99.90
18392;DHT22;9322;50.932;5.318;2022-11-30T09:16:32;8.30;99.90
18392;DHT22;9322;50.932;5.318;2022-11-30T09:18:58;8.40;99.90
18392;DHT22;9322;50.932;5.318;2022-11-30T09:21:24;8.50;99.90
18392;DHT22;9322;50.932;5.318;2022-11-30T09:23:50;8.50;99.90
18392;DHT22;9322;50.932;5.318;2022-11-30T09:26:18;8.30;99.90
18392;DHT22;9322;50.932;5.318;2022-11-30T09:28:45;8.30;99.90
18392;DHT22;9322;50.932;5.318;2022-11-30T09:31:19;8.30;99.90
18392;DHT22;9322;50.932;5.318;2022-11-30T09:33:46;8.50;99.90
18392;DHT22;9322;50.932;5.318;2022-11-30T09:36:15;8.40;99.90
18392;DHT22;9322;50.932;5.318;2022-11-30T09:38:41;8.50;99.90
18392;DHT22;9322;50.932;5.318;2022-11-30T09:41:34;8.40;99.90
18392;DHT22;9322;50.932;5.318;2022-11-30T09:47:03;8.60;99.90
18392;DHT22;9322;50.932;5.318;2022-11-30T09:49:35;8.60;99.90
18392;DHT22;9322;50.932;5.318;2022-11-30T09:52:04;8.60;99.90
18392;DHT22;9322;50.932;5.318;2022-11-30T09:54:39;8.60;99.90
18392;DHT22;9322;50.932;5.318;2022-11-30T09:57:27;8.50;99.90
18392;DHT22;9322;50.932;5.318;2022-11-30T09:59:59;8.80;99.90
18392;DHT22;9322;50.932;5.318;2022-11-30T10:02:31;8.80;99.90
18392;DHT22;9322;50.932;5.318;2022-11-30T10:04:58;8.80;99.90
18392;DHT22;9322;50.932;5.318;2022-11-30T10:10:29;8.90;99.90
18392;DHT22;9322;50.932;5.318;2022-11-30T10:13:42;8.90;99.90
18392;DHT22;9322;50.932;5.318;2022-11-30T10:29:59;9.30;99.90
18392;DHT22;9322;50.932;5.318;2022-11-30T10:32:34;9.30;99.90
18392;DHT22;9322;50.932;5.318;2022-11-30T10:35:14;9.30;99.90
18392;DHT22;9322;50.932;5.318;2022-11-30T10:37:42;9.40;99.90
18392;DHT22;9322;50.932;5.318;2022-11-30T10:40:12;9.50;99.90
18392;DHT22;9322;50.932;5.318;2022-11-30T10:45:23;10.00;99.90
18392;DHT22;9322;50.932;5.318;2022-11-30T10:48:09;10.40;99.90
18392;DHT22;9322;50.932;5.318;2022-11-30T10:50:35;10.50;99.90
18392;DHT22;9322;50.932;5.318;2022-11-30T10:53:01;10.80;99.90
18392;DHT22;9322;50.932;5.318;2022-11-30T10:55:34;11.90;99.90
18392;DHT22;9322;50.932;5.318;2022-11-30T11:01:10;14.10;90.30
18392;DHT22;9322;50.932;5.318;2022-11-30T11:06:32;11.80;99.90
18392;DHT22;9322;50.932;5.318;2022-11-30T11:08:58;11.00;99.90
18392;DHT22;9322;50.932;5.318;2022-11-30T11:11:36;10.70;99.90
18392;DHT22;9322;50.932;5.318;2022-11-30T11:14:14;10.60;99.90
18392;DHT22;9322;50.932;5.318;2022-11-30T11:16:55;10.50;99.90
18392;DHT22;9322;50.932;5.318;2022-11-30T11:19:30;10.20;99.90
18392;DHT22;9322;50.932;5.318;2022-11-30T11:21:59;10.30;99.90
18392;DHT22;9322;50.932;5.318;2022-11-30T11:24:26;10.20;99.90
18392;DHT22;9322;50.932;5.318;2022-11-30T11:26:53;10.10;99.90
18392;DHT22;9322;50.932;5.318;2022-11-30T11:29:34;10.30;99.90
18392;DHT22;9322;50.932;5.318;2022-11-30T11:32:22;10.50;99.90
18392;DHT22;9322;50.932;5.318;2022-11-30T11:34:49;10.70;99.90
18392;DHT22;9322;50.932;5.318;2022-11-30T11:37:28;10.90;99.90
18392;DHT22;9322;50.932;5.318;2022-11-30T11:39:56;11.00;99.90
18392;DHT22;9322;50.932;5.318;2022-11-30T11:42:23;11.00;99.90
18392;DHT22;9322;50.932;5.318;2022-11-30T11:44:53;11.00;99.90
18392;DHT22;9322;50.932;5.318;2022-11-30T11:47:42;11.10;99.90
18392;DHT22;9322;50.932;5.318;2022-11-30T11:50:32;11.10;99.90
18392;DHT22;9322;50.932;5.318;2022-11-30T11:56:04;10.90;99.90
18392;DHT22;9322;50.932;5.318;2022-11-30T12:04:36;11.70;99.90
18392;DHT22;9322;50.932;5.318;2022-11-30T12:12:57;12.10;99.90
18392;DHT22;9322;50.932;5.318;2022-11-30T12:18:22;11.70;99.90
18392;DHT22;9322;50.932;5.318;2022-11-30T12:28:38;11.00;99.90
18392;DHT22;9322;50.932;5.318;2022-11-30T12:31:14;11.20;99.90
18392;DHT22;9322;50.932;5.318;2022-11-30T12:36:24;12.20;99.90
18392;DHT22;9322;50.932;5.318;2022-11-30T12:41:53;12.60;94.10
18392;DHT22;9322;50.932;5.318;2022-11-30T12:44:47;11.90;99.90
18392;DHT22;9322;50.932;5.318;2022-11-30T12:47:19;11.50;99.90
18392;DHT22;9322;50.932;5.318;2022-11-30T12:50:06;11.30;99.90
18392;DHT22;9322;50.932;5.318;2022-11-30T12:55:39;10.90;99.90
18392;DHT22;9322;50.932;5.318;2022-11-30T13:04:00;10.70;99.90
18392;DHT22;9322;50.932;5.318;2022-11-30T13:06:37;10.70;99.90
18392;DHT22;9322;50.932;5.318;2022-11-30T13:09:20;10.80;99.90
18392;DHT22;9322;50.932;5.318;2022-11-30T13:11:51;11.00;99.90
18392;DHT22;9322;50.932;5.318;2022-11-30T13:14:24;10.80;99.90
18392;DHT22;9322;50.932;5.318;2022-11-30T13:17:00;10.60;99.90
18392;DHT22;9322;50.932;5.318;2022-11-30T13:19:43;10.80;99.90
18392;DHT22;9322;50.932;5.318;2022-11-30T13:30:45;10.20;99.90
18392;DHT22;9322;50.932;5.318;2022-11-30T13:33:48;10.40;99.90
18392;DHT22;9322;50.932;5.318;2022-11-30T13:39:20;10.30;99.90
18392;DHT22;9322;50.932;5.318;2022-11-30T13:44:32;10.20;99.90
18392;DHT22;9322;50.932;5.318;2022-11-30T13:47:28;10.30;99.90
18392;DHT22;9322;50.932;5.318;2022-11-30T13:49:59;10.30;99.90
18392;DHT22;9322;50.932;5.318;2022-11-30T13:58:02;9.70;99.90
18392;DHT22;9322;50.932;5.318;2022-11-30T14:02:56;9.50;99.90
18392;DHT22;9322;50.932;5.318;2022-11-30T14:05:44;9.40;99.90
18392;DHT22;9322;50.932;5.318;2022-11-30T14:08:16;9.60;99.90
18392;DHT22;9322;50.932;5.318;2022-11-30T14:20:49;9.40;99.90
18392;DHT22;9322;50.932;5.318;2022-11-30T14:23:31;9.60;99.90
18392;DHT22;9322;50.932;5.318;2022-11-30T14:26:07;9.30;99.90
18392;DHT22;9322;50.932;5.318;2022-11-30T14:29:40;9.30;99.90
18392;DHT22;9322;50.932;5.318;2022-11-30T14:34:19;9.30;99.90
18392;DHT22;9322;50.932;5.318;2022-11-30T14:36:49;9.30;99.90
18392;DHT22;9322;50.932;5.318;2022-11-30T14:39:27;9.20;99.90
18392;DHT22;9322;50.932;5.318;2022-11-30T14:41:55;9.10;99.90
18392;DHT22;9322;50.932;5.318;2022-11-30T14:44:21;9.20;99.90
18392;DHT22;9322;50.932;5.318;2022-11-30T14:46:47;9.00;99.90
18392;DHT22;9322;50.932;5.318;2022-11-30T14:49:19;9.00;99.90
18392;DHT22;9322;50.932;5.318;2022-11-30T14:51:51;9.00;99.90
18392;DHT22;9322;50.932;5.318;2022-11-30T14:54:28;9.00;99.90
18392;DHT22;9322;50.932;5.318;2022-11-30T14:57:05;9.10;99.90
18392;DHT22;9322;50.932;5.318;2022-11-30T14:59:43;8.80;99.90
18392;DHT22;9322;50.932;5.318;2022-11-30T15:02:39;8.70;99.90
18392;DHT22;9322;50.932;5.318;2022-11-30T15:05:13;8.50;99.90
18392;DHT22;9322;50.932;5.318;2022-11-30T15:07:40;8.50;99.90
18392;DHT22;9322;50.932;5.318;2022-11-30T15:10:15;8.60;99.90
18392;DHT22;9322;50.932;5.318;2022-11-30T15:12:42;8.50;99.90
18392;DHT22;9322;50.932;5.318;2022-11-30T15:15:19;8.70;99.90
18392;DHT22;9322;50.932;5.318;2022-11-30T15:20:41;8.60;99.90
18392;DHT22;9322;50.932;5.318;2022-11-30T15:23:14;8.60;99.90
18392;DHT22;9322;50.932;5.318;2022-11-30T15:25:55;8.50;99.90
18392;DHT22;9322;50.932;5.318;2022-11-30T15:28:24;8.50;99.90
18392;DHT22;9322;50.932;5.318;2022-11-30T15:30:56;8.50;99.90
18392;DHT22;9322;50.932;5.318;2022-11-30T15:33:29;8.60;99.90
18392;DHT22;9322;50.932;5.318;2022-11-30T15:35:56;8.70;99.90
18392;DHT22;9322;50.932;5.318;2022-11-30T15:38:26;8.50;99.90
18392;DHT22;9322;50.932;5.318;2022-11-30T15:41:00;8.50;99.90
18392;DHT22;9322;50.932;5.318;2022-11-30T15:43:34;8.50;99.90
18392;DHT22;9322;50.932;5.318;2022-11-30T15:46:02;8.70;99.90
18392;DHT22;9322;50.932;5.318;2022-11-30T15:48:29;8.80;99.90
18392;DHT22;9322;50.932;5.318;2022-11-30T15:50:55;8.80;99.90
18392;DHT22;9322;50.932;5.318;2022-11-30T15:53:22;8.80;99.90
18392;DHT22;9322;50.932;5.318;2022-11-30T15:55:52;8.80;99.90
18392;DHT22;9322;50.932;5.318;2022-11-30T16:01:06;8.80;99.90
18392;DHT22;9322;50.932;5.318;2022-11-30T16:06:23;8.80;99.90
18392;DHT22;9322;50.932;5.318;2022-11-30T16:08:50;8.70;99.90
18392;DHT22;9322;50.932;5.318;2022-11-30T16:11:17;8.60;99.90
18392;DHT22;9322;50.932;5.318;2022-11-30T16:13:43;8.70;99.90
18392;DHT22;9322;50.932;5.318;2022-11-30T16:16:20;8.70;99.90
18392;DHT22;9322;50.932;5.318;2022-11-30T16:18:48;8.70;99.90
18392;DHT22;9322;50.932;5.318;2022-11-30T16:21:16;8.70;99.90
18392;DHT22;9322;50.932;5.318;2022-11-30T16:23:42;8.70;99.90
18392;DHT22;9322;50.932;5.318;2022-11-30T16:26:12;8.70;99.90
18392;DHT22;9322;50.932;5.318;2022-11-30T16:28:38;8.70;99.90
18392;DHT22;9322;50.932;5.318;2022-11-30T16:31:04;8.60;99.90
18392;DHT22;9322;50.932;5.318;2022-11-30T16:33:30;8.60;99.90
18392;DHT22;9322;50.932;5.318;2022-11-30T16:36:06;8.50;99.90
18392;DHT22;9322;50.932;5.318;2022-11-30T16:38:32;8.40;99.90
18392;DHT22;9322;50.932;5.318;2022-11-30T16:41:22;8.40;99.90
18392;DHT22;9322;50.932;5.318;2022-11-30T16:43:49;8.40;99.90
18392;DHT22;9322;50.932;5.318;2022-11-30T16:46:20;8.40;99.90
18392;DHT22;9322;50.932;5.318;2022-11-30T16:48:46;8.50;99.90
18392;DHT22;9322;50.932;5.318;2022-11-30T16:51:32;8.60;99.90
18392;DHT22;9322;50.932;5.318;2022-11-30T16:54:00;8.50;99.90
18392;DHT22;9322;50.932;5.318;2022-11-30T16:56:26;8.70;99.90
18392;DHT22;9322;50.932;5.318;2022-11-30T16:58:52;8.50;99.90
18392;DHT22;9322;50.932;5.318;2022-11-30T17:01:32;8.30;99.90
18392;DHT22;9322;50.932;5.318;2022-11-30T17:03:59;8.20;99.90
18392;DHT22;9322;50.932;5.318;2022-11-30T17:06:25;8.20;99.90
18392;DHT22;9322;50.932;5.318;2022-11-30T17:08:51;8.10;99.90
18392;DHT22;9322;50.932;5.318;2022-11-30T17:11:31;8.00;99.90
18392;DHT22;9322;50.932;5.318;2022-11-30T17:13:57;8.00;99.90
18392;DHT22;9322;50.932;5.318;2022-11-30T17:16:23;8.10;99.90
18392;DHT22;9322;50.932;5.318;2022-11-30T17:18:49;8.10;99.90
18392;DHT22;9322;50.932;5.318;2022-11-30T17:21:16;8.10;99.90
18392;DHT22;9322;50.932;5.318;2022-11-30T17:23:44;8.10;99.90
18392;DHT22;9322;50.932;5.318;2022-11-30T17:26:10;8.10;99.90
18392;DHT22;9322;50.932;5.318;2022-11-30T17:28:36;8.10;99.90
18392;DHT22;9322;50.932;5.318;2022-11-30T17:31:02;8.10;99.90
18392;DHT22;9322;50.932;5.318;2022-11-30T17:33:34;8.10;99.90
18392;DHT22;9322;50.932;5.318;2022-11-30T17:36:02;8.00;99.90
18392;DHT22;9322;50.932;5.318;2022-11-30T17:38:28;8.00;99.90
18392;DHT22;9322;50.932;5.318;2022-11-30T17:40:54;8.00;99.90
18392;DHT22;9322;50.932;5.318;2022-11-30T17:43:20;7.90;99.90
18392;DHT22;9322;50.932;5.318;2022-11-30T17:45:46;8.00;99.90
18392;DHT22;9322;50.932;5.318;2022-11-30T17:48:12;8.00;99.90
18392;DHT22;9322;50.932;5.318;2022-11-30T17:50:41;8.00;99.90
18392;DHT22;9322;50.932;5.318;2022-11-30T17:53:06;8.30;99.90
18392;DHT22;9322;50.932;5.318;2022-11-30T17:55:33;8.00;99.90
18392;DHT22;9322;50.932;5.318;2022-11-30T17:57:58;8.00;99.90
18392;DHT22;9322;50.932;5.318;2022-11-30T18:00:24;7.90;99.90
18392;DHT22;9322;50.932;5.318;2022-11-30T18:02:50;8.00;99.90
18392;DHT22;9322;50.932;5.318;2022-11-30T18:05:17;8.00;99.90
18392;DHT22;9322;50.932;5.318;2022-11-30T18:07:43;8.00;99.90
18392;DHT22;9322;50.932;5.318;2022-11-30T18:10:09;7.90;99.90
18392;DHT22;9322;50.932;5.318;2022-11-30T18:12:35;7.80;99.90
18392;DHT22;9322;50.932;5.318;2022-11-30T18:15:01;7.80;99.90
18392;DHT22;9322;50.932;5.318;2022-11-30T18:17:26;7.90;99.90
18392;DHT22;9322;50.932;5.318;2022-11-30T18:19:52;7.90;99.90
18392;DHT22;9322;50.932;5.318;2022-11-30T18:22:18;7.90;99.90
18392;DHT22;9322;50.932;5.318;2022-11-30T18:24:43;7.90;99.90
18392;DHT22;9322;50.932;5.318;2022-11-30T18:27:09;7.80;99.90
18392;DHT22;9322;50.932;5.318;2022-11-30T18:29:35;7.70;99.90